Time;durP1;ratioP1;P1;durP2;ratioP2;P2;SDS_P1;SDS_P2;PMS_P1;PMS_P2;Temp;Humidity;BMP_temperature;BMP_pressure;BME280_temperature;BME280_humidity;BME280_pressure;Samples;Min_cycle;Max_cycle;Signal;HPM_P1;HPM_P2
2022/12/13 00:00:36;;;;;;;;;;;-2.40;96.00;;;;;;5063759;28;19999;-73
2022/12/13 00:03:03;;;;;;;;;;;-2.40;96.00;;;;;;5083991;28;19971;-75
2022/12/13 00:05:31;;;;;;;;;;;-2.40;96.00;;;;;;5082740;28;19975;-75
2022/12/13 00:07:58;;;;;;;;;;;-2.40;96.00;;;;;;5082778;28;20375;-76
2022/12/13 00:10:25;;;;;;;;;;;-2.40;96.00;;;;;;5076048;28;20002;-75
2022/12/13 00:12:53;;;;;;;;;;;-2.50;96.00;;;;;;5074067;28;20630;-75
2022/12/13 00:15:20;;;;;;;;;;;-2.50;96.00;;;;;;5073702;28;20737;-72
2022/12/13 00:17:46;;;;;;;;;;;-2.50;96.00;;;;;;5061787;28;20066;-75
2022/12/13 00:20:13;;;;;;;;;;;-2.50;96.00;;;;;;5062733;28;19991;-75
2022/12/13 00:22:39;;;;;;;;;;;-2.50;96.00;;;;;;5065386;28;20470;-76
2022/12/13 00:25:06;;;;;;;;;;;-2.50;95.90;;;;;;5063403;28;19976;-75
2022/12/13 00:27:33;;;;;;;;;;;-2.60;95.90;;;;;;5061371;28;19995;-75
2022/12/13 00:30:01;;;;;;;;;;;-2.60;95.90;;;;;;5063036;28;20344;-75
2022/12/13 00:32:27;;;;;;;;;;;-2.50;96.20;;;;;;5059032;28;19995;-75
2022/12/13 00:34:54;;;;;;;;;;;-2.50;95.90;;;;;;5062305;28;19980;-74
2022/12/13 00:37:20;;;;;;;;;;;-2.60;95.90;;;;;;5059589;28;20014;-75
2022/12/13 00:39:47;;;;;;;;;;;-2.60;95.90;;;;;;5058225;28;19998;-74
2022/12/13 00:42:13;;;;;;;;;;;-2.60;95.90;;;;;;5060293;28;19983;-75
2022/12/13 00:44:40;;;;;;;;;;;-2.60;95.90;;;;;;5061065;28;19979;-74
2022/12/13 00:47:08;;;;;;;;;;;-2.60;95.90;;;;;;5057688;28;20003;-74
2022/12/13 00:49:34;;;;;;;;;;;-2.70;95.90;;;;;;5057584;28;19983;-76
2022/12/13 00:52:01;;;;;;;;;;;-2.70;95.90;;;;;;5058035;28;20073;-75
2022/12/13 00:54:27;;;;;;;;;;;-2.70;95.90;;;;;;5059978;28;19979;-75
2022/12/13 00:56:54;;;;;;;;;;;-2.70;95.90;;;;;;5058402;28;19979;-75
2022/12/13 00:59:21;;;;;;;;;;;-2.70;95.90;;;;;;5057727;28;19983;-74
2022/12/13 01:01:47;;;;;;;;;;;-2.70;95.90;;;;;;5057982;28;20007;-75
2022/12/13 01:04:15;;;;;;;;;;;-2.70;95.90;;;;;;5057790;28;19980;-74
2022/12/13 01:06:43;;;;;;;;;;;-2.70;95.90;;;;;;5062848;28;20466;-75
2022/12/13 01:09:12;;;;;;;;;;;-2.70;95.90;;;;;;5056191;28;20057;-74
2022/12/13 01:11:38;;;;;;;;;;;-2.70;95.90;;;;;;5056236;28;20013;-74
2022/12/13 01:14:05;;;;;;;;;;;-2.70;95.90;;;;;;5058362;28;19972;-75
2022/12/13 01:16:32;;;;;;;;;;;-2.70;95.90;;;;;;5054913;28;19996;-75
2022/12/13 01:18:58;;;;;;;;;;;-2.80;95.90;;;;;;5057336;28;20070;-74
2022/12/13 01:21:26;;;;;;;;;;;-2.80;95.90;;;;;;5060460;28;19991;-74
2022/12/13 01:23:53;;;;;;;;;;;-2.80;95.90;;;;;;5061641;28;19982;-75
2022/12/13 01:26:20;;;;;;;;;;;-2.80;95.90;;;;;;5062092;28;20005;-75
2022/12/13 01:28:47;;;;;;;;;;;-2.80;95.90;;;;;;5061645;28;19995;-75
2022/12/13 01:31:14;;;;;;;;;;;-2.80;95.90;;;;;;5056264;28;20014;-74
2022/12/13 01:33:41;;;;;;;;;;;-2.80;95.90;;;;;;5057645;28;20536;-75
2022/12/13 01:36:11;;;;;;;;;;;-2.80;95.90;;;;;;5061998;28;19980;-75
2022/12/13 01:38:39;;;;;;;;;;;-2.80;96.00;;;;;;5059163;28;20454;-74
2022/12/13 01:41:06;;;;;;;;;;;-2.80;96.00;;;;;;5053227;28;19995;-74
2022/12/13 01:43:47;;;;;;;;;;;-2.90;95.90;;;;;;5057915;28;19979;-75
2022/12/13 01:46:14;;;;;;;;;;;-2.90;95.90;;;;;;5057969;28;19994;-74
2022/12/13 01:48:46;;;;;;;;;;;-2.90;95.90;;;;;;5057588;28;20003;-74
2022/12/13 01:51:15;;;;;;;;;;;-2.90;96.00;;;;;;5054981;28;20042;-75
2022/12/13 01:53:44;;;;;;;;;;;-2.90;95.90;;;;;;5058535;28;20038;-75
2022/12/13 01:56:12;;;;;;;;;;;-2.90;95.90;;;;;;5055361;28;19979;-74
2022/12/13 01:58:39;;;;;;;;;;;-2.90;95.90;;;;;;5060537;28;20330;-74
2022/12/13 02:01:06;;;;;;;;;;;-2.90;95.90;;;;;;5059001;28;20497;-75
2022/12/13 02:03:32;;;;;;;;;;;-3.00;95.90;;;;;;5061181;28;19980;-74
2022/12/13 02:06:01;;;;;;;;;;;-3.00;95.90;;;;;;5057339;28;19976;-74
2022/12/13 02:08:28;;;;;;;;;;;-3.00;95.90;;;;;;5057591;28;19995;-74
2022/12/13 02:10:57;;;;;;;;;;;-3.00;95.90;;;;;;5058080;28;20488;-75
2022/12/13 02:13:23;;;;;;;;;;;-3.00;95.90;;;;;;5061584;28;19980;-74
2022/12/13 02:15:54;;;;;;;;;;;-3.00;95.90;;;;;;5057403;28;19988;-75
2022/12/13 02:18:25;;;;;;;;;;;-3.00;95.90;;;;;;5059186;28;19972;-75
2022/12/13 02:20:57;;;;;;;;;;;-3.00;95.90;;;;;;5056855;28;20624;-75
2022/12/13 02:23:41;;;;;;;;;;;-3.00;95.90;;;;;;5054066;28;19987;-74
2022/12/13 02:26:27;;;;;;;;;;;-3.00;95.90;;;;;;5043882;28;19976;-75
2022/12/13 02:29:03;;;;;;;;;;;-3.10;95.90;;;;;;5053253;28;19987;-75
2022/12/13 02:31:32;;;;;;;;;;;-3.10;95.90;;;;;;5057506;28;20468;-75
2022/12/13 02:34:01;;;;;;;;;;;-3.10;95.80;;;;;;5056827;28;20050;-74
2022/12/13 02:36:29;;;;;;;;;;;-3.10;95.80;;;;;;5056026;28;20015;-75
2022/12/13 02:38:58;;;;;;;;;;;-3.10;95.80;;;;;;5054074;28;20647;-75
2022/12/13 02:41:27;;;;;;;;;;;-3.10;95.90;;;;;;5050819;28;19995;-75
2022/12/13 02:43:56;;;;;;;;;;;-3.10;95.90;;;;;;5056722;28;19983;-75
2022/12/13 02:46:25;;;;;;;;;;;-3.10;95.90;;;;;;5052991;28;20002;-75
2022/12/13 02:48:54;;;;;;;;;;;-3.10;95.90;;;;;;5053898;28;19995;-75
2022/12/13 02:51:21;;;;;;;;;;;-3.10;95.90;;;;;;5052450;28;20086;-74
2022/12/13 02:53:48;;;;;;;;;;;-3.20;95.80;;;;;;5058970;28;19976;-74
2022/12/13 02:56:15;;;;;;;;;;;-3.20;95.80;;;;;;5050945;28;19972;-75
2022/12/13 02:58:43;;;;;;;;;;;-3.20;95.80;;;;;;5057903;28;19986;-75
2022/12/13 03:01:19;;;;;;;;;;;-3.20;95.80;;;;;;5056999;28;19999;-74
2022/12/13 03:03:47;;;;;;;;;;;-3.20;95.80;;;;;;5055932;28;19979;-74
2022/12/13 03:06:31;;;;;;;;;;;-3.20;95.80;;;;;;5056059;28;19971;-75
2022/12/13 03:09:07;;;;;;;;;;;-3.30;95.70;;;;;;5056176;28;20001;-73
2022/12/13 03:14:25;;;;;;;;;;;-3.30;96.10;;;;;;5059293;28;19994;-75
2022/12/13 03:16:52;;;;;;;;;;;-3.30;95.80;;;;;;5052216;28;19991;-74
2022/12/13 03:19:19;;;;;;;;;;;-3.30;95.80;;;;;;5056707;28;19971;-74
2022/12/13 03:21:48;;;;;;;;;;;-3.30;95.80;;;;;;5056707;28;20010;-75
2022/12/13 03:24:16;;;;;;;;;;;-3.30;95.80;;;;;;5057542;28;19976;-73
2022/12/13 03:26:43;;;;;;;;;;;-3.30;95.80;;;;;;5058500;28;20006;-75
2022/12/13 03:29:10;;;;;;;;;;;-3.30;95.80;;;;;;5055993;28;19995;-75
2022/12/13 03:31:36;;;;;;;;;;;-3.30;95.80;;;;;;5058240;28;19991;-71
2022/12/13 03:34:03;;;;;;;;;;;-3.30;95.80;;;;;;5054718;28;19979;-75
2022/12/13 03:36:30;;;;;;;;;;;-3.40;95.70;;;;;;5050182;28;20071;-74
2022/12/13 03:38:58;;;;;;;;;;;-3.40;95.80;;;;;;5054603;28;20623;-74
2022/12/13 03:41:30;;;;;;;;;;;-3.40;95.80;;;;;;5056707;28;19999;-75
2022/12/13 03:43:56;;;;;;;;;;;-3.40;95.80;;;;;;5057758;28;19980;-74
2022/12/13 03:46:23;;;;;;;;;;;-3.40;95.80;;;;;;5054846;28;19995;-75
2022/12/13 03:48:50;;;;;;;;;;;-3.40;95.80;;;;;;5057800;28;19994;-74
2022/12/13 03:51:16;;;;;;;;;;;-3.40;95.80;;;;;;5052912;28;19995;-75
2022/12/13 03:53:43;;;;;;;;;;;-3.40;95.80;;;;;;5055091;28;19983;-75
2022/12/13 03:56:11;;;;;;;;;;;-3.40;95.80;;;;;;5049571;28;19971;-75
2022/12/13 03:58:40;;;;;;;;;;;-3.40;95.80;;;;;;5054505;28;19971;-74
2022/12/13 04:01:08;;;;;;;;;;;-3.50;95.80;;;;;;5055851;28;19999;-74
2022/12/13 04:03:34;;;;;;;;;;;-3.50;95.80;;;;;;5059028;28;20050;-75
2022/12/13 04:06:01;;;;;;;;;;;-3.50;95.80;;;;;;5059065;28;19979;-75
2022/12/13 04:08:27;;;;;;;;;;;-3.50;96.10;;;;;;5063612;28;19995;-74
2022/12/13 04:10:54;;;;;;;;;;;-3.50;95.80;;;;;;5054036;28;20007;-74
2022/12/13 04:13:33;;;;;;;;;;;-3.50;96.10;;;;;;5061765;28;20006;-75
2022/12/13 04:15:59;;;;;;;;;;;-3.50;95.80;;;;;;5053462;28;20417;-73
2022/12/13 04:18:26;;;;;;;;;;;-3.50;95.90;;;;;;5065529;28;19984;-75
2022/12/13 04:20:53;;;;;;;;;;;-3.50;95.90;;;;;;5055807;28;20002;-74
2022/12/13 04:23:19;;;;;;;;;;;-3.50;95.90;;;;;;5061444;28;19975;-75
2022/12/13 04:25:46;;;;;;;;;;;-3.50;95.90;;;;;;5058800;28;19979;-74
2022/12/13 04:28:12;;;;;;;;;;;-3.50;95.90;;;;;;5064709;28;20002;-75
2022/12/13 04:30:40;;;;;;;;;;;-3.60;95.90;;;;;;5054767;28;20007;-75
2022/12/13 04:33:07;;;;;;;;;;;-3.60;95.90;;;;;;5061661;28;20564;-75
2022/12/13 04:35:33;;;;;;;;;;;-3.60;95.90;;;;;;5052546;28;19984;-75
2022/12/13 04:38:00;;;;;;;;;;;-3.60;95.90;;;;;;5052333;28;19980;-75
2022/12/13 04:40:27;;;;;;;;;;;-3.60;95.90;;;;;;5055396;28;19995;-74
2022/12/13 04:42:54;;;;;;;;;;;-3.60;96.30;;;;;;5063449;28;19975;-74
2022/12/13 04:45:21;;;;;;;;;;;-3.60;95.90;;;;;;5061427;28;19975;-75
2022/12/13 04:47:49;;;;;;;;;;;-3.60;95.90;;;;;;5061826;28;20062;-74
2022/12/13 04:50:16;;;;;;;;;;;-3.60;95.90;;;;;;5058890;28;20021;-75
2022/12/13 04:52:43;;;;;;;;;;;-3.60;95.90;;;;;;5062780;28;20324;-74
2022/12/13 04:55:10;;;;;;;;;;;-3.60;96.00;;;;;;5059557;28;20347;-74
2022/12/13 04:57:37;;;;;;;;;;;-3.60;96.00;;;;;;5060258;28;19975;-75
2022/12/13 05:00:04;;;;;;;;;;;-3.60;96.00;;;;;;5058563;28;19991;-75
2022/12/13 05:02:30;;;;;;;;;;;-3.60;96.00;;;;;;5059301;28;20006;-74
2022/12/13 05:04:59;;;;;;;;;;;-3.60;96.00;;;;;;5057321;28;19976;-74
2022/12/13 05:07:26;;;;;;;;;;;-3.60;96.00;;;;;;5059463;28;19986;-74
2022/12/13 05:09:52;;;;;;;;;;;-3.70;95.90;;;;;;5058462;28;20000;-74
2022/12/13 05:12:19;;;;;;;;;;;-3.70;95.90;;;;;;5057465;28;19979;-74
2022/12/13 05:14:46;;;;;;;;;;;-3.70;95.90;;;;;;5061183;28;19979;-75
2022/12/13 05:17:12;;;;;;;;;;;-3.70;95.90;;;;;;5057707;28;19995;-74
2022/12/13 05:19:39;;;;;;;;;;;-3.70;95.90;;;;;;5065230;28;19983;-74
2022/12/13 05:22:14;;;;;;;;;;;-3.70;95.90;;;;;;5063882;28;19998;-74
2022/12/13 05:24:41;;;;;;;;;;;-3.70;96.30;;;;;;5060974;28;19983;-75
2022/12/13 05:27:08;;;;;;;;;;;-3.70;95.90;;;;;;5064421;28;20049;-75
2022/12/13 05:29:35;;;;;;;;;;;-3.70;95.90;;;;;;5065137;28;20074;-74
2022/12/13 05:32:01;;;;;;;;;;;-3.70;95.90;;;;;;5053300;28;20029;-74
2022/12/13 05:34:28;;;;;;;;;;;-3.70;95.90;;;;;;5063921;28;19982;-75
2022/12/13 05:36:54;;;;;;;;;;;-3.70;95.90;;;;;;5057623;28;19980;-72
2022/12/13 05:39:22;;;;;;;;;;;-3.70;95.90;;;;;;5059821;28;19982;-74
2022/12/13 05:41:49;;;;;;;;;;;-3.80;95.90;;;;;;5052569;28;20003;-75
2022/12/13 05:44:15;;;;;;;;;;;-3.80;95.90;;;;;;5062920;28;20009;-75
2022/12/13 05:46:42;;;;;;;;;;;-3.80;96.00;;;;;;5056045;28;19996;-75
2022/12/13 05:49:09;;;;;;;;;;;-3.80;95.90;;;;;;5055731;28;19991;-74
2022/12/13 05:51:35;;;;;;;;;;;-3.80;95.90;;;;;;5057340;28;20074;-75
2022/12/13 05:54:02;;;;;;;;;;;-3.80;95.90;;;;;;5053773;28;19983;-75
2022/12/13 05:56:30;;;;;;;;;;;-3.80;95.90;;;;;;5055420;28;20344;-74
2022/12/13 05:58:56;;;;;;;;;;;-3.80;95.90;;;;;;5057747;28;19980;-74
2022/12/13 06:01:23;;;;;;;;;;;-3.80;95.90;;;;;;5056293;28;20003;-74
2022/12/13 06:03:49;;;;;;;;;;;-3.80;95.90;;;;;;5053711;28;19975;-74
2022/12/13 06:06:17;;;;;;;;;;;-3.90;95.80;;;;;;5051825;28;20749;-74
2022/12/13 06:08:43;;;;;;;;;;;-3.90;95.80;;;;;;5051942;28;19996;-75
2022/12/13 06:11:10;;;;;;;;;;;-3.80;95.90;;;;;;5058102;28;19999;-75
2022/12/13 06:13:38;;;;;;;;;;;-3.90;95.80;;;;;;5055215;28;19975;-73
2022/12/13 06:16:06;;;;;;;;;;;-3.90;95.80;;;;;;5052415;28;20236;-73
2022/12/13 06:18:34;;;;;;;;;;;-3.90;95.80;;;;;;5053606;28;19979;-74
2022/12/13 06:21:01;;;;;;;;;;;-3.90;95.80;;;;;;5058174;28;20513;-75
2022/12/13 06:23:30;;;;;;;;;;;-3.90;95.80;;;;;;5055190;28;19975;-74
2022/12/13 06:25:56;;;;;;;;;;;-3.90;95.80;;;;;;5050662;28;19979;-74
2022/12/13 06:28:23;;;;;;;;;;;-3.90;95.80;;;;;;5058119;28;20022;-73
2022/12/13 06:30:51;;;;;;;;;;;-3.90;95.80;;;;;;5052762;28;20605;-74
2022/12/13 06:33:18;;;;;;;;;;;-3.90;95.80;;;;;;5059639;28;20023;-74
2022/12/13 06:35:45;;;;;;;;;;;-3.90;95.80;;;;;;5060947;28;19983;-74
2022/12/13 06:38:12;;;;;;;;;;;-4.00;95.80;;;;;;5055103;28;19986;-72
2022/12/13 06:40:38;;;;;;;;;;;-4.00;95.80;;;;;;5058752;28;20026;-72
2022/12/13 06:43:05;;;;;;;;;;;-4.00;95.80;;;;;;5051709;28;19976;-72
2022/12/13 06:45:32;;;;;;;;;;;-4.00;95.80;;;;;;5056769;28;20467;-72
2022/12/13 06:47:59;;;;;;;;;;;-4.00;95.80;;;;;;5059640;28;19987;-72
2022/12/13 06:50:26;;;;;;;;;;;-4.00;95.80;;;;;;5060249;28;19999;-71
2022/12/13 06:52:53;;;;;;;;;;;-4.00;95.80;;;;;;5057034;28;19976;-72
2022/12/13 06:55:19;;;;;;;;;;;-4.00;95.80;;;;;;5053662;28;21141;-72
2022/12/13 06:57:46;;;;;;;;;;;-4.00;95.80;;;;;;5055986;28;20434;-72
2022/12/13 07:00:13;;;;;;;;;;;-4.00;95.80;;;;;;5052068;28;20045;-72
2022/12/13 07:02:39;;;;;;;;;;;-4.00;95.80;;;;;;5051144;28;19979;-72
2022/12/13 07:05:09;;;;;;;;;;;-4.10;95.80;;;;;;5060352;28;19987;-72
2022/12/13 07:07:35;;;;;;;;;;;-4.10;95.80;;;;;;5056305;28;19986;-72
2022/12/13 07:10:02;;;;;;;;;;;-4.10;95.80;;;;;;5058856;28;20005;-72
2022/12/13 07:12:29;;;;;;;;;;;-4.10;95.80;;;;;;5060094;28;19979;-71
2022/12/13 07:14:55;;;;;;;;;;;-4.10;95.80;;;;;;5050089;28;19976;-72
2022/12/13 07:17:22;;;;;;;;;;;-4.00;95.90;;;;;;5059678;28;20010;-72
2022/12/13 07:19:48;;;;;;;;;;;-4.10;95.80;;;;;;5055461;28;20006;-72
2022/12/13 07:22:16;;;;;;;;;;;-4.10;95.80;;;;;;5059761;28;19976;-72
2022/12/13 07:24:43;;;;;;;;;;;-4.10;95.80;;;;;;5061712;28;19983;-71
2022/12/13 07:27:09;;;;;;;;;;;-4.10;95.80;;;;;;5058239;28;19976;-72
2022/12/13 07:29:37;;;;;;;;;;;-4.10;95.80;;;;;;5060259;28;20006;-70
2022/12/13 07:32:03;;;;;;;;;;;-4.10;95.90;;;;;;5060251;28;20003;-72
2022/12/13 07:34:30;;;;;;;;;;;-4.10;95.80;;;;;;5059781;28;19994;-72
2022/12/13 07:36:56;;;;;;;;;;;-4.10;95.80;;;;;;5056014;28;20041;-71
2022/12/13 07:39:25;;;;;;;;;;;-4.10;95.80;;;;;;5059626;28;20006;-72
2022/12/13 07:41:53;;;;;;;;;;;-4.10;95.80;;;;;;5068698;28;20321;-71
2022/12/13 07:44:19;;;;;;;;;;;-4.10;95.80;;;;;;5056882;28;19982;-71
2022/12/13 07:46:46;;;;;;;;;;;-4.20;95.80;;;;;;5056964;28;20606;-71
2022/12/13 07:49:13;;;;;;;;;;;-4.20;95.80;;;;;;5063085;28;19995;-72
2022/12/13 07:51:39;;;;;;;;;;;-4.10;96.00;;;;;;5053256;28;19995;-71
2022/12/13 07:54:07;;;;;;;;;;;-4.10;95.80;;;;;;5055002;28;19979;-72
2022/12/13 07:56:35;;;;;;;;;;;-4.10;95.80;;;;;;5059090;28;20749;-72
2022/12/13 07:59:02;;;;;;;;;;;-4.20;95.80;;;;;;5057076;28;20086;-72
2022/12/13 08:01:30;;;;;;;;;;;-4.10;95.80;;;;;;5054546;28;19996;-71
2022/12/13 08:03:57;;;;;;;;;;;-4.20;95.80;;;;;;5059733;28;19991;-71
2022/12/13 08:06:24;;;;;;;;;;;-4.20;95.80;;;;;;5062862;28;20209;-71
2022/12/13 08:08:54;;;;;;;;;;;-4.20;95.80;;;;;;5059096;28;19983;-71
2022/12/13 08:11:21;;;;;;;;;;;-4.20;95.80;;;;;;5057709;28;19992;-71
2022/12/13 08:13:49;;;;;;;;;;;-4.10;95.80;;;;;;5063501;28;19975;-72
2022/12/13 08:16:17;;;;;;;;;;;-4.20;95.80;;;;;;5064816;28;19994;-71
2022/12/13 08:18:43;;;;;;;;;;;-4.20;95.80;;;;;;5083145;28;19983;-71
2022/12/13 08:21:10;;;;;;;;;;;-4.20;95.90;;;;;;5083454;28;19987;-71
2022/12/13 08:23:37;;;;;;;;;;;-4.20;95.80;;;;;;5080417;28;19979;-70
2022/12/13 08:26:04;;;;;;;;;;;-4.20;95.90;;;;;;5083573;28;19971;-71
2022/12/13 08:28:31;;;;;;;;;;;-4.20;95.90;;;;;;5079572;28;20702;-72
2022/12/13 08:31:04;;;;;;;;;;;-4.20;95.90;;;;;;5071307;28;19995;-71
2022/12/13 08:33:30;;;;;;;;;;;-4.20;95.90;;;;;;5066490;28;19979;-71
2022/12/13 08:35:57;;;;;;;;;;;-4.20;95.90;;;;;;5064984;28;20018;-71
2022/12/13 08:38:24;;;;;;;;;;;-4.20;95.90;;;;;;5054327;28;20217;-72
2022/12/13 08:40:51;;;;;;;;;;;-4.20;95.90;;;;;;5056194;28;19995;-71
2022/12/13 08:43:17;;;;;;;;;;;-4.20;95.90;;;;;;5060390;28;20153;-72
2022/12/13 08:45:44;;;;;;;;;;;-4.20;95.90;;;;;;5060144;28;19991;-71
2022/12/13 08:48:12;;;;;;;;;;;-4.20;95.90;;;;;;5058248;28;19986;-72
2022/12/13 08:50:38;;;;;;;;;;;-4.20;95.90;;;;;;5055254;28;20006;-71
2022/12/13 08:53:05;;;;;;;;;;;-4.20;95.90;;;;;;5054891;28;19983;-71
2022/12/13 08:55:31;;;;;;;;;;;-4.20;95.90;;;;;;5061061;28;19979;-71
2022/12/13 08:57:58;;;;;;;;;;;-4.20;95.90;;;;;;5056558;28;19976;-72
2022/12/13 09:00:25;;;;;;;;;;;-4.20;95.90;;;;;;5054847;28;20022;-72
2022/12/13 09:02:51;;;;;;;;;;;-4.20;95.90;;;;;;5064959;28;19980;-72
2022/12/13 09:05:19;;;;;;;;;;;-4.20;95.90;;;;;;5057894;28;19975;-72
2022/12/13 09:07:46;;;;;;;;;;;-4.10;95.90;;;;;;5060234;28;19979;-72
2022/12/13 09:10:12;;;;;;;;;;;-4.10;95.90;;;;;;5055174;28;20003;-71
2022/12/13 09:12:41;;;;;;;;;;;-4.10;96.00;;;;;;5058650;28;19986;-71
2022/12/13 09:15:08;;;;;;;;;;;-4.10;95.90;;;;;;5061192;28;19979;-72
2022/12/13 09:17:34;;;;;;;;;;;-4.10;95.90;;;;;;5082239;28;20374;-72
2022/12/13 09:20:01;;;;;;;;;;;-4.10;95.90;;;;;;5085490;28;19975;-71
2022/12/13 09:22:29;;;;;;;;;;;-4.10;96.00;;;;;;5083879;28;19997;-72
2022/12/13 09:24:55;;;;;;;;;;;-4.10;96.00;;;;;;5083693;28;21745;-72
2022/12/13 09:27:23;;;;;;;;;;;-4.10;95.90;;;;;;5084432;28;19990;-71
2022/12/13 09:29:50;;;;;;;;;;;-4.10;95.90;;;;;;5082019;28;20044;-72
2022/12/13 09:32:16;;;;;;;;;;;-4.00;95.90;;;;;;5076925;28;20780;-72
2022/12/13 09:34:43;;;;;;;;;;;-4.00;95.90;;;;;;5078442;28;19979;-70
2022/12/13 09:37:11;;;;;;;;;;;-4.00;95.90;;;;;;5074293;28;19988;-71
2022/12/13 09:39:39;;;;;;;;;;;-4.00;95.90;;;;;;5079577;28;19983;-70
2022/12/13 09:42:09;;;;;;;;;;;-4.00;95.90;;;;;;5079091;28;20022;-72
2022/12/13 09:44:37;;;;;;;;;;;-4.00;95.90;;;;;;5077149;28;19976;-71
2022/12/13 09:47:07;;;;;;;;;;;-4.00;95.90;;;;;;5054754;28;20497;-71
2022/12/13 09:49:35;;;;;;;;;;;-4.00;95.90;;;;;;5052616;28;19995;-72
2022/12/13 09:52:02;;;;;;;;;;;-3.90;95.90;;;;;;5054597;28;19992;-71
2022/12/13 09:54:29;;;;;;;;;;;-3.90;95.90;;;;;;5056170;28;20013;-72
2022/12/13 09:56:57;;;;;;;;;;;-3.90;95.90;;;;;;5060291;28;20546;-71
2022/12/13 09:59:27;;;;;;;;;;;-3.90;95.90;;;;;;5056984;28;20519;-72
2022/12/13 10:01:53;;;;;;;;;;;-3.90;95.90;;;;;;5053061;28;20038;-72
2022/12/13 10:04:20;;;;;;;;;;;-3.90;95.90;;;;;;5057350;28;19976;-72
2022/12/13 10:06:50;;;;;;;;;;;-3.90;95.90;;;;;;5057739;28;19986;-72
2022/12/13 10:09:18;;;;;;;;;;;-3.80;95.90;;;;;;5052632;28;19994;-71
2022/12/13 10:11:48;;;;;;;;;;;-3.80;95.90;;;;;;5058268;28;20645;-71
2022/12/13 10:14:18;;;;;;;;;;;-3.80;95.90;;;;;;5051086;28;20416;-71
2022/12/13 10:16:46;;;;;;;;;;;-3.80;95.90;;;;;;5054304;28;20000;-72
2022/12/13 10:19:15;;;;;;;;;;;-3.80;95.90;;;;;;5062292;28;19975;-72
2022/12/13 10:21:43;;;;;;;;;;;-3.80;95.90;;;;;;5053330;28;19995;-72
2022/12/13 10:24:13;;;;;;;;;;;-3.80;95.90;;;;;;5057330;28;19987;-71
2022/12/13 10:26:39;;;;;;;;;;;-3.80;95.90;;;;;;5060817;28;19979;-71
2022/12/13 10:29:06;;;;;;;;;;;-3.80;95.90;;;;;;5056045;28;19975;-71
2022/12/13 10:31:40;;;;;;;;;;;-3.70;95.90;;;;;;5057421;28;20015;-72
2022/12/13 10:34:14;;;;;;;;;;;-3.70;95.90;;;;;;5054295;28;19979;-71
2022/12/13 10:36:42;;;;;;;;;;;-3.70;95.90;;;;;;5056211;28;19983;-71
2022/12/13 10:39:14;;;;;;;;;;;-3.70;95.90;;;;;;5056501;28;20619;-72
2022/12/13 10:41:41;;;;;;;;;;;-3.70;95.90;;;;;;5057821;28;19995;-72
2022/12/13 10:44:15;;;;;;;;;;;-3.70;95.90;;;;;;5048340;28;20464;-69
2022/12/13 10:46:50;;;;;;;;;;;-3.60;95.90;;;;;;5050199;28;20002;-69
2022/12/13 10:49:18;;;;;;;;;;;-3.60;95.90;;;;;;5059978;28;19975;-71
2022/12/13 10:51:45;;;;;;;;;;;-3.60;95.80;;;;;;5053033;28;20007;-71
2022/12/13 10:54:15;;;;;;;;;;;-3.60;95.80;;;;;;5054792;28;19979;-71
2022/12/13 10:56:45;;;;;;;;;;;-3.60;95.80;;;;;;5053519;28;19975;-71
2022/12/13 10:59:22;;;;;;;;;;;-3.60;95.80;;;;;;5054233;28;19976;-71
2022/12/13 11:01:50;;;;;;;;;;;-3.50;95.80;;;;;;5071413;28;20001;-72
2022/12/13 11:04:22;;;;;;;;;;;-3.50;95.80;;;;;;5081737;28;19971;-71
2022/12/13 11:06:49;;;;;;;;;;;-3.50;95.80;;;;;;5074286;28;20471;-71
2022/12/13 11:09:16;;;;;;;;;;;-3.50;95.80;;;;;;5075417;28;19994;-71
2022/12/13 11:11:44;;;;;;;;;;;-3.50;95.70;;;;;;5079406;28;19999;-71
2022/12/13 11:14:16;;;;;;;;;;;-3.50;95.70;;;;;;5082634;28;19975;-71
2022/12/13 11:16:44;;;;;;;;;;;-3.40;95.70;;;;;;5080963;28;19991;-71
2022/12/13 11:19:16;;;;;;;;;;;-3.40;95.70;;;;;;5083292;28;19975;-72
2022/12/13 11:21:46;;;;;;;;;;;-3.40;95.70;;;;;;5083107;28;19995;-71
2022/12/13 11:24:18;;;;;;;;;;;-3.30;95.70;;;;;;5082114;28;19982;-71
2022/12/13 11:26:45;;;;;;;;;;;-3.40;95.60;;;;;;5080949;28;19979;-71
2022/12/13 11:29:23;;;;;;;;;;;-3.30;95.70;;;;;;5080585;28;19975;-71
2022/12/13 11:31:53;;;;;;;;;;;-3.30;95.60;;;;;;5067185;28;20003;-71
2022/12/13 11:34:29;;;;;;;;;;;-3.30;95.60;;;;;;5059472;28;19987;-71
2022/12/13 11:37:00;;;;;;;;;;;-3.30;95.60;;;;;;5059186;28;20036;-72
2022/12/13 11:39:29;;;;;;;;;;;-3.30;95.50;;;;;;5055690;28;19983;-71
2022/12/13 11:41:58;;;;;;;;;;;-3.30;95.50;;;;;;5060193;28;19995;-71
2022/12/13 11:44:29;;;;;;;;;;;-3.20;95.40;;;;;;5060313;28;19979;-72
2022/12/13 11:46:58;;;;;;;;;;;-3.20;95.40;;;;;;5053506;28;20018;-71
2022/12/13 11:49:32;;;;;;;;;;;-3.20;95.40;;;;;;5060227;28;19986;-71
2022/12/13 11:52:01;;;;;;;;;;;-3.10;95.40;;;;;;5053006;28;19995;-71
2022/12/13 11:54:31;;;;;;;;;;;-3.10;95.30;;;;;;5054371;28;19979;-72
2022/12/13 11:57:03;;;;;;;;;;;-3.10;95.30;;;;;;5058894;28;20049;-71
2022/12/13 11:59:32;;;;;;;;;;;-3.10;95.30;;;;;;5057307;28;20362;-72
2022/12/13 12:02:03;;;;;;;;;;;-3.10;95.30;;;;;;5052386;28;19995;-70
2022/12/13 12:04:36;;;;;;;;;;;-3.00;95.30;;;;;;5056556;28;19987;-71
2022/12/13 12:07:07;;;;;;;;;;;-3.00;95.20;;;;;;5054284;28;19995;-70
2022/12/13 12:09:36;;;;;;;;;;;-3.00;95.30;;;;;;5055985;28;20002;-71
2022/12/13 12:12:05;;;;;;;;;;;-3.00;95.20;;;;;;5056640;28;19996;-71
2022/12/13 12:14:37;;;;;;;;;;;-3.00;95.20;;;;;;5058026;28;19987;-72
2022/12/13 12:17:05;;;;;;;;;;;-2.90;95.20;;;;;;5054310;28;20049;-70
2022/12/13 12:19:35;;;;;;;;;;;-2.90;95.10;;;;;;5060756;28;19976;-71
2022/12/13 12:22:10;;;;;;;;;;;-2.90;95.10;;;;;;5061912;28;20025;-71
2022/12/13 12:24:46;;;;;;;;;;;-2.90;95.10;;;;;;5058587;28;20402;-69
2022/12/13 12:27:20;;;;;;;;;;;-2.90;95.10;;;;;;5059444;28;19972;-71
2022/12/13 12:29:56;;;;;;;;;;;-2.90;95.10;;;;;;5060159;28;19978;-70
2022/12/13 12:32:31;;;;;;;;;;;-2.80;95.10;;;;;;5060126;28;20002;-71
2022/12/13 12:35:07;;;;;;;;;;;-2.80;95.00;;;;;;5059999;28;19975;-71
2022/12/13 12:37:39;;;;;;;;;;;-2.80;95.00;;;;;;5059506;28;19982;-71
2022/12/13 12:40:20;;;;;;;;;;;-2.80;95.00;;;;;;5057661;28;20066;-71
2022/12/13 12:42:50;;;;;;;;;;;-2.80;95.00;;;;;;5059283;28;19979;-70
2022/12/13 12:45:23;;;;;;;;;;;-2.70;95.00;;;;;;5058776;28;19982;-72
2022/12/13 12:47:58;;;;;;;;;;;-2.70;95.00;;;;;;5062216;28;20018;-71
2022/12/13 12:50:35;;;;;;;;;;;-2.70;94.90;;;;;;5062558;28;20003;-71
2022/12/13 12:53:13;;;;;;;;;;;-2.70;94.90;;;;;;5057913;28;20343;-71
2022/12/13 12:55:47;;;;;;;;;;;-2.70;94.80;;;;;;5055209;28;20382;-71
2022/12/13 12:58:19;;;;;;;;;;;-2.70;94.80;;;;;;5053240;28;19987;-71
2022/12/13 13:00:51;;;;;;;;;;;-2.60;94.90;;;;;;5055489;28;19999;-71
2022/12/13 13:03:20;;;;;;;;;;;-2.60;94.90;;;;;;5059669;28;20006;-71
2022/12/13 13:05:50;;;;;;;;;;;-2.60;94.80;;;;;;5061015;28;19980;-71
2022/12/13 13:08:20;;;;;;;;;;;-2.50;94.80;;;;;;5060097;28;19975;-71
2022/12/13 13:10:46;;;;;;;;;;;-2.50;94.80;;;;;;5059264;28;20006;-71
2022/12/13 13:13:33;;;;;;;;;;;-2.50;94.80;;;;;;5061141;28;19976;-70
2022/12/13 13:16:00;;;;;;;;;;;-2.50;94.70;;;;;;5061743;28;19995;-71
2022/12/13 13:18:47;;;;;;;;;;;-2.50;94.70;;;;;;5061373;28;19994;-71
2022/12/13 13:21:26;;;;;;;;;;;-2.50;94.70;;;;;;5054669;28;19996;-70
2022/12/13 13:24:05;;;;;;;;;;;-2.50;94.70;;;;;;5051854;28;20455;-71
2022/12/13 13:26:31;;;;;;;;;;;-2.50;94.70;;;;;;5060418;28;19981;-72
2022/12/13 13:29:20;;;;;;;;;;;-2.40;94.80;;;;;;5053008;28;19976;-70
2022/12/13 13:31:54;;;;;;;;;;;-2.50;94.80;;;;;;5058284;28;20002;-72
2022/12/13 13:34:22;;;;;;;;;;;-2.40;94.80;;;;;;5059520;28;20440;-72
2022/12/13 13:36:51;;;;;;;;;;;-2.40;94.80;;;;;;5052482;28;19991;-71
2022/12/13 13:39:19;;;;;;;;;;;-2.40;94.80;;;;;;5056122;28;20017;-71
2022/12/13 13:41:56;;;;;;;;;;;-2.40;94.80;;;;;;5056611;28;19995;-71
2022/12/13 13:44:53;;;;;;;;;;;-2.40;94.80;;;;;;5057340;28;20451;-71
2022/12/13 13:47:37;;;;;;;;;;;-2.40;94.80;;;;;;5054076;28;20064;-71
2022/12/13 13:50:18;;;;;;;;;;;-2.40;94.80;;;;;;5058940;28;20351;-71
2022/12/13 13:52:51;;;;;;;;;;;-2.40;94.70;;;;;;5060266;28;20469;-72
2022/12/13 13:55:35;;;;;;;;;;;-2.30;94.80;;;;;;5050316;28;19975;-72
2022/12/13 13:58:21;;;;;;;;;;;-2.30;94.70;;;;;;5059658;28;19982;-71
2022/12/13 14:00:56;;;;;;;;;;;-2.30;94.70;;;;;;5053350;28;19999;-72
2022/12/13 14:03:39;;;;;;;;;;;-2.30;94.70;;;;;;5057315;28;20048;-71
2022/12/13 14:06:14;;;;;;;;;;;-2.30;94.70;;;;;;5051713;28;19976;-71
2022/12/13 14:08:47;;;;;;;;;;;-2.30;94.70;;;;;;5058981;28;19986;-71
2022/12/13 14:11:38;;;;;;;;;;;-2.20;94.70;;;;;;5057408;28;20398;-71
2022/12/13 14:14:22;;;;;;;;;;;-2.20;94.70;;;;;;5055455;28;19982;-71
2022/12/13 14:17:07;;;;;;;;;;;-2.20;94.70;;;;;;5056032;28;20002;-71
2022/12/13 14:20:07;;;;;;;;;;;-2.20;94.70;;;;;;5055857;28;19979;-71
2022/12/13 14:22:38;;;;;;;;;;;-2.20;94.80;;;;;;5054451;28;19983;-70
2022/12/13 14:25:24;;;;;;;;;;;-2.30;94.70;;;;;;5053060;28;20018;-70
2022/12/13 14:27:53;;;;;;;;;;;-2.30;94.80;;;;;;5057588;28;19987;-72
2022/12/13 14:30:21;;;;;;;;;;;-2.20;94.80;;;;;;5057013;28;19991;-71